createdAt,value
2022-09-07T00:00:03.747Z,65.33
2022-09-07T00:02:28.877Z,65.04
2022-09-07T00:04:53.023Z,65.15
2022-09-07T00:07:17.394Z,64.98
2022-09-07T00:09:41.510Z,64.68
2022-09-07T00:12:06.111Z,65.58
2022-09-07T00:14:31.723Z,66.12
2022-09-07T00:16:55.929Z,65.99
2022-09-07T00:19:19.988Z,65.82
2022-09-07T00:21:45.384Z,65.40
2022-09-07T00:24:09.504Z,65.43
2022-09-07T00:26:33.661Z,65.71
2022-09-07T00:28:59.916Z,66.67
2022-09-07T00:31:25.947Z,66.50
2022-09-07T00:33:51.361Z,65.72
2022-09-07T00:36:15.919Z,65.54
2022-09-07T00:38:41.352Z,66.42
2022-09-07T00:41:05.858Z,67.11
2022-09-07T00:43:33.102Z,67.36
2022-09-07T00:45:57.424Z,67.32
2022-09-07T00:48:26.951Z,67.29
2022-09-07T00:50:54.903Z,67.46
2022-09-07T00:53:24.451Z,68.29
2022-09-07T00:55:50.739Z,68.12
2022-09-07T00:58:15.217Z,67.36
2022-09-07T01:00:41.116Z,67.67
2022-09-07T01:03:06.678Z,67.80
2022-09-07T01:05:36.855Z,67.57
2022-09-07T01:08:01.198Z,67.46
2022-09-07T01:10:29.320Z,66.82
2022-09-07T01:12:53.703Z,66.84
2022-09-07T01:15:18.101Z,66.53
2022-09-07T01:17:55.038Z,66.58
2022-09-07T01:20:37.115Z,67.25
2022-09-07T01:23:36.472Z,67.10
2022-09-07T01:26:24.263Z,66.78
2022-09-07T01:28:56.572Z,66.26
2022-09-07T01:31:34.815Z,66.09
2022-09-07T01:34:06.803Z,66.61
2022-09-07T01:36:40.059Z,66.91
2022-09-07T01:39:06.180Z,67.02
2022-09-07T01:41:37.228Z,66.69
2022-09-07T01:44:09.221Z,66.82
2022-09-07T01:46:36.534Z,66.32
2022-09-07T01:49:08.352Z,66.71
2022-09-07T01:51:36.086Z,67.13
2022-09-07T01:54:04.433Z,67.08
2022-09-07T01:56:34.798Z,66.55
2022-09-07T01:59:02.384Z,66.43
2022-09-07T02:01:33.127Z,66.07
2022-09-07T02:04:04.323Z,65.84
2022-09-07T02:06:35.699Z,65.60
2022-09-07T02:09:06.162Z,65.73
2022-09-07T02:11:36.550Z,65.64
2022-09-07T02:14:05.988Z,65.51
2022-09-07T02:16:33.589Z,65.44
2022-09-07T02:19:00.543Z,64.99
2022-09-07T02:21:30.597Z,65.00
2022-09-07T02:23:59.254Z,65.11
2022-09-07T02:26:26.574Z,65.32
2022-09-07T02:28:50.991Z,65.92
2022-09-07T02:31:16.001Z,65.86
2022-09-07T02:33:43.144Z,65.63
2022-09-07T02:36:08.353Z,65.57
2022-09-07T02:38:32.961Z,65.71
2022-09-07T02:40:59.551Z,66.93
2022-09-07T02:43:25.493Z,66.95
2022-09-07T02:46:02.584Z,67.06
2022-09-07T02:48:36.674Z,66.25
2022-09-07T02:51:16.785Z,65.93
2022-09-07T02:54:09.909Z,65.81
2022-09-07T02:56:52.263Z,66.13
2022-09-07T02:59:30.636Z,66.55
2022-09-07T03:02:00.790Z,66.81
2022-09-07T03:04:30.627Z,66.78
2022-09-07T03:07:04.728Z,66.62
2022-09-07T03:09:36.491Z,66.61
2022-09-07T03:12:04.045Z,66.83
2022-09-07T03:14:30.615Z,67.29
2022-09-07T03:16:57.547Z,67.17
2022-09-07T03:19:21.666Z,66.99
2022-09-07T03:21:46.024Z,66.90
2022-09-07T03:24:11.952Z,67.09
2022-09-07T03:26:40.344Z,67.35
2022-09-07T03:29:04.382Z,66.91
2022-09-07T03:31:28.638Z,66.87
2022-09-07T03:33:52.705Z,66.88
2022-09-07T03:36:16.844Z,66.62
2022-09-07T03:38:40.929Z,67.29
2022-09-07T03:41:07.948Z,67.22
2022-09-07T03:43:33.125Z,66.58
2022-09-07T03:46:01.264Z,66.29
2022-09-07T03:48:25.570Z,66.65
2022-09-07T03:50:57.363Z,66.55
2022-09-07T03:53:21.551Z,66.44
2022-09-07T03:55:45.567Z,66.37
2022-09-07T03:58:10.997Z,65.73
2022-09-07T04:00:35.459Z,65.66
2022-09-07T04:02:59.485Z,65.51
2022-09-07T04:05:24.264Z,65.87
2022-09-07T04:07:49.680Z,66.09
2022-09-07T04:10:13.780Z,65.73
2022-09-07T04:12:37.931Z,65.27
2022-09-07T04:15:03.500Z,64.96
2022-09-07T04:17:27.580Z,65.97
2022-09-07T04:19:52.405Z,66.04
2022-09-07T04:22:16.501Z,66.38
2022-09-07T04:24:40.603Z,66.17
2022-09-07T04:27:04.685Z,66.79
2022-09-07T04:29:28.804Z,66.69
2022-09-07T04:31:54.575Z,66.50
2022-09-07T04:34:18.903Z,65.66
2022-09-07T04:36:43.095Z,65.28
2022-09-07T04:39:07.420Z,65.05
2022-09-07T04:41:33.494Z,64.54
2022-09-07T04:43:59.275Z,64.48
2022-09-07T04:46:25.542Z,64.31
2022-09-07T04:48:52.188Z,63.91
2022-09-07T04:51:16.803Z,63.79
2022-09-07T04:53:40.870Z,63.63
2022-09-07T04:56:06.249Z,62.78
2022-09-07T04:58:31.738Z,63.51
2022-09-07T05:00:56.057Z,63.77
2022-09-07T05:03:20.130Z,63.00
2022-09-07T05:05:46.158Z,62.41
2022-09-07T05:08:10.287Z,62.30
2022-09-07T05:10:34.467Z,61.68
2022-09-07T05:12:59.461Z,61.72
2022-09-07T05:15:23.501Z,61.55
2022-09-07T05:17:47.596Z,61.18
2022-09-07T05:20:12.052Z,61.15
2022-09-07T05:22:41.090Z,61.18
2022-09-07T05:25:05.602Z,61.23
2022-09-07T05:27:31.034Z,61.48
2022-09-07T05:30:03.732Z,61.70
2022-09-07T05:32:29.841Z,60.65
2022-09-07T05:34:54.110Z,60.48
2022-09-07T05:37:18.249Z,60.32
2022-09-07T05:39:44.707Z,59.78
2022-09-07T05:42:09.021Z,59.82
2022-09-07T05:47:05.403Z,59.18
2022-09-07T05:49:29.813Z,59.32
2022-09-07T05:51:55.091Z,59.02
2022-09-07T05:54:19.406Z,58.48
2022-09-07T05:56:44.908Z,58.31
2022-09-07T05:59:09.011Z,58.17
2022-09-07T06:01:35.471Z,58.54
2022-09-07T06:03:59.766Z,58.17
2022-09-07T06:06:23.983Z,58.00
2022-09-07T06:08:50.190Z,58.00
2022-09-07T06:11:16.710Z,57.72
2022-09-07T06:13:43.191Z,57.16
2022-09-07T06:16:09.292Z,57.13
2022-09-07T06:18:34.896Z,55.91
2022-09-07T06:21:03.989Z,56.02
2022-09-07T06:23:28.095Z,55.83
2022-09-07T06:25:52.252Z,54.78
2022-09-07T06:28:16.315Z,52.84
2022-09-07T06:30:41.725Z,53.60
2022-09-07T06:33:05.831Z,53.33
2022-09-07T06:35:30.301Z,53.48
2022-09-07T06:37:54.361Z,53.37
2022-09-07T06:40:18.795Z,53.54
2022-09-07T06:42:42.926Z,53.74
2022-09-07T06:45:11.277Z,53.30
2022-09-07T06:47:37.252Z,53.66
2022-09-07T06:50:01.834Z,53.86
2022-09-07T06:52:28.227Z,54.51
2022-09-07T06:54:59.899Z,54.34
2022-09-07T06:57:32.362Z,53.52
2022-09-07T06:59:56.608Z,53.10
2022-09-07T07:02:20.738Z,52.13
2022-09-07T07:04:46.688Z,51.91
2022-09-07T07:07:15.030Z,51.40
2022-09-07T07:09:39.455Z,51.08
2022-09-07T07:12:04.450Z,51.03
2022-09-07T07:14:31.015Z,52.18
2022-09-07T07:16:56.406Z,51.33
2022-09-07T07:19:20.540Z,51.69
2022-09-07T07:22:10.751Z,50.74
2022-09-07T07:24:30.229Z,49.82
2022-09-07T07:26:54.420Z,49.67
2022-09-07T07:29:19.002Z,49.76
2022-09-07T07:31:43.304Z,49.31
2022-09-07T07:34:07.632Z,49.04
2022-09-07T07:36:31.903Z,48.85
2022-09-07T07:38:59.656Z,49.18
2022-09-07T07:44:10.953Z,49.32
2022-09-07T07:46:35.161Z,49.08
2022-09-07T07:49:00.215Z,48.36
2022-09-07T07:51:24.906Z,49.35
2022-09-07T07:53:48.988Z,49.15
2022-09-07T07:56:14.890Z,49.10
2022-09-07T07:58:39.908Z,49.22
2022-09-07T08:01:08.119Z,47.76
2022-09-07T08:03:36.521Z,48.12
2022-09-07T08:06:08.137Z,47.25
2022-09-07T08:08:32.350Z,47.52
2022-09-07T08:10:56.497Z,47.40
2022-09-07T08:13:22.526Z,47.34
2022-09-07T08:15:46.925Z,47.56
2022-09-07T08:18:13.127Z,47.21
2022-09-07T08:20:37.010Z,47.00
2022-09-07T08:23:01.031Z,46.30
2022-09-07T08:25:25.487Z,46.67
2022-09-07T08:27:49.393Z,46.86
2022-09-07T08:30:14.888Z,46.78
2022-09-07T08:32:39.067Z,46.41
2022-09-07T08:35:03.223Z,46.37
2022-09-07T08:37:27.687Z,45.56
2022-09-07T08:39:51.798Z,46.51
2022-09-07T08:42:39.028Z,46.26
2022-09-07T08:45:07.471Z,46.15
2022-09-07T08:47:39.170Z,46.27
2022-09-07T08:50:09.588Z,45.37
2022-09-07T08:52:47.748Z,45.09
2022-09-07T08:55:18.758Z,44.54
2022-09-07T08:57:50.143Z,45.72
2022-09-07T09:00:16.972Z,45.81
2022-09-07T09:05:33.099Z,46.31
2022-09-07T09:06:11.377Z,45.88
2022-09-07T09:08:10.528Z,47.03
2022-09-07T09:10:42.089Z,46.38
2022-09-07T09:13:16.480Z,45.69
2022-09-07T09:15:53.589Z,45.74
2022-09-07T09:18:32.637Z,46.12
2022-09-07T09:20:58.201Z,45.72
2022-09-07T09:23:26.806Z,46.02
2022-09-07T09:25:54.977Z,45.36
2022-09-07T09:28:19.396Z,45.49
2022-09-07T09:30:43.415Z,46.01
2022-09-07T09:33:17.194Z,43.80
2022-09-07T09:35:43.948Z,44.00
2022-09-07T09:38:29.991Z,43.68
2022-09-07T09:40:54.984Z,44.70
2022-09-07T09:43:21.264Z,44.63
2022-09-07T09:48:34.713Z,44.05
2022-09-07T09:53:56.009Z,42.78
2022-09-07T09:56:20.239Z,42.35
2022-09-07T10:01:35.301Z,43.42
2022-09-07T10:04:16.527Z,42.94
2022-09-07T10:06:52.408Z,42.94
2022-09-07T10:09:21.134Z,43.68
2022-09-07T10:14:34.186Z,43.17
2022-09-07T10:16:59.097Z,42.92
2022-09-07T10:19:30.795Z,43.33
2022-09-07T10:22:01.814Z,42.60
2022-09-07T10:24:27.959Z,43.27
2022-09-07T10:26:53.211Z,43.74
2022-09-07T10:29:23.177Z,43.75
2022-09-07T10:32:02.599Z,43.56
2022-09-07T10:34:33.483Z,43.94
2022-09-07T10:37:04.912Z,43.68
2022-09-07T10:39:35.779Z,43.23
2022-09-07T10:42:06.556Z,42.75
2022-09-07T10:44:43.492Z,43.28
2022-09-07T10:47:16.674Z,43.48
2022-09-07T10:52:42.319Z,43.26
2022-09-07T10:55:13.129Z,43.61
2022-09-07T10:57:49.156Z,42.79
2022-09-07T11:00:16.146Z,42.97
2022-09-07T11:06:04.199Z,43.21
2022-09-07T11:14:16.319Z,41.17
2022-09-07T11:16:53.953Z,41.43
2022-09-07T11:19:38.719Z,42.50
2022-09-07T11:22:16.128Z,43.26
2022-09-07T11:24:47.815Z,42.11
2022-09-07T11:27:17.045Z,42.05
2022-09-07T11:29:48.361Z,40.95
2022-09-07T11:32:18.163Z,42.57
2022-09-07T11:34:47.715Z,43.99
2022-09-07T11:37:18.010Z,43.17
2022-09-07T11:39:48.513Z,44.50
2022-09-07T11:45:07.172Z,42.87
2022-09-07T11:47:39.339Z,44.31
2022-09-07T11:50:03.593Z,43.94
2022-09-07T11:52:35.557Z,43.61
2022-09-07T11:55:04.700Z,42.77
2022-09-07T11:57:45.220Z,43.11
2022-09-07T12:00:15.845Z,41.69
2022-09-07T12:03:12.114Z,41.66
2022-09-07T12:06:00.936Z,42.98
2022-09-07T12:08:39.763Z,43.11
2022-09-07T12:11:24.340Z,42.92
2022-09-07T12:14:10.695Z,42.63
2022-09-07T12:16:49.349Z,42.50
2022-09-07T12:19:21.392Z,42.14
2022-09-07T12:21:48.462Z,42.07
2022-09-07T12:24:36.778Z,41.60
2022-09-07T12:27:03.436Z,41.90
2022-09-07T12:29:29.131Z,41.84
2022-09-07T12:32:07.368Z,41.70
2022-09-07T12:34:58.122Z,41.34
2022-09-07T12:37:42.464Z,41.13
2022-09-07T12:41:01.271Z,41.82
2022-09-07T12:44:08.332Z,41.19
2022-09-07T12:46:51.915Z,42.00
2022-09-07T12:49:30.675Z,43.15
2022-09-07T12:52:14.212Z,42.63
2022-09-07T12:54:42.675Z,42.43
2022-09-07T12:57:29.564Z,42.64
2022-09-07T13:00:11.682Z,42.90
2022-09-07T13:02:55.983Z,43.18
2022-09-07T13:05:33.419Z,42.21
2022-09-07T13:08:22.057Z,41.05
2022-09-07T13:10:47.203Z,42.28
2022-09-07T13:14:02.642Z,42.26
2022-09-07T13:16:30.954Z,42.04
2022-09-07T13:18:55.468Z,41.54
2022-09-07T13:21:40.826Z,41.66
2022-09-07T13:24:50.177Z,43.55
2022-09-07T13:27:38.804Z,43.30
2022-09-07T13:30:21.139Z,41.64
2022-09-07T13:35:32.030Z,44.11
2022-09-07T13:37:57.920Z,43.58
2022-09-07T13:40:26.645Z,43.60
2022-09-07T13:42:53.262Z,41.60
2022-09-07T13:45:31.131Z,41.99
2022-09-07T13:48:05.313Z,41.90
2022-09-07T13:50:39.131Z,41.82
2022-09-07T13:53:28.651Z,41.65
2022-09-07T13:56:04.249Z,41.79
2022-09-07T13:58:31.004Z,42.03
2022-09-07T14:00:57.591Z,41.56
2022-09-07T14:03:25.172Z,40.91
2022-09-07T14:05:49.161Z,42.38
2022-09-07T14:08:26.135Z,42.27
2022-09-07T14:10:50.236Z,42.76
2022-09-07T14:13:14.179Z,44.17
2022-09-07T14:15:42.547Z,42.99
2022-09-07T14:18:07.930Z,42.83
2022-09-07T14:20:39.567Z,43.24
2022-09-07T14:23:03.627Z,42.35
2022-09-07T14:25:27.765Z,41.00
2022-09-07T14:27:51.944Z,42.10
2022-09-07T14:30:17.509Z,42.17
2022-09-07T14:32:41.907Z,41.55
2022-09-07T14:35:12.139Z,40.99
2022-09-07T14:37:38.360Z,41.13
2022-09-07T14:40:04.404Z,41.44
2022-09-07T14:42:28.406Z,40.73
2022-09-07T14:45:12.701Z,41.24
2022-09-07T14:47:37.683Z,41.07
2022-09-07T14:50:05.993Z,42.57
2022-09-07T14:52:36.779Z,41.42
2022-09-07T14:55:19.895Z,42.35
2022-09-07T14:57:43.821Z,40.81
2022-09-07T15:00:22.725Z,41.59
2022-09-07T15:02:46.667Z,42.32
2022-09-07T15:05:20.509Z,42.34
2022-09-07T15:07:48.748Z,41.77
2022-09-07T15:10:28.787Z,42.46
2022-09-07T15:12:54.916Z,42.96
2022-09-07T15:15:26.275Z,43.16
2022-09-07T15:17:50.898Z,43.41
2022-09-07T15:20:38.359Z,42.63
2022-09-07T15:23:03.858Z,42.45
2022-09-07T15:25:30.585Z,42.15
2022-09-07T15:27:55.699Z,43.38
2022-09-07T15:30:19.731Z,43.91
2022-09-07T15:32:43.660Z,43.13
2022-09-07T15:35:08.163Z,43.47
2022-09-07T15:40:20.538Z,43.85
2022-09-07T15:43:06.614Z,44.01
2022-09-07T15:45:29.896Z,43.80
2022-09-07T15:47:54.008Z,43.85
2022-09-07T15:50:18.454Z,44.40
2022-09-07T15:52:42.732Z,43.43
2022-09-07T15:55:11.815Z,43.15
2022-09-07T15:57:59.249Z,44.08
2022-09-07T16:00:21.539Z,44.16
2022-09-07T16:05:31.345Z,44.57
2022-09-07T16:10:40.416Z,45.58
2022-09-07T16:13:10.826Z,45.21
2022-09-07T16:15:36.842Z,45.31
2022-09-07T16:18:01.198Z,46.30
2022-09-07T16:20:25.271Z,45.88
2022-09-07T16:25:33.365Z,46.92
2022-09-07T16:27:58.053Z,47.07
2022-09-07T16:30:22.324Z,46.68
2022-09-07T16:32:48.168Z,47.27
2022-09-07T16:35:12.222Z,46.28
2022-09-07T16:37:36.166Z,46.43
2022-09-07T16:40:00.273Z,46.70
2022-09-07T16:42:24.196Z,46.95
2022-09-07T16:44:48.102Z,47.99
2022-09-07T16:47:12.833Z,47.77
2022-09-07T16:49:39.146Z,47.83
2022-09-07T16:52:05.295Z,47.53
2022-09-07T16:54:29.218Z,47.50
2022-09-07T16:56:53.610Z,47.88
2022-09-07T16:59:20.289Z,48.03
2022-09-07T17:01:44.288Z,48.02
2022-09-07T17:04:11.220Z,48.13
2022-09-07T17:06:37.079Z,48.55
2022-09-07T17:09:01.318Z,48.51
2022-09-07T17:11:26.812Z,48.33
2022-09-07T17:13:51.744Z,48.07
2022-09-07T17:16:17.693Z,48.77
2022-09-07T17:21:29.279Z,48.96
2022-09-07T17:23:55.803Z,48.97
2022-09-07T17:26:21.719Z,49.22
2022-09-07T17:28:47.302Z,49.54
2022-09-07T17:32:23.941Z,49.52
2022-09-07T17:33:59.676Z,49.77
2022-09-07T17:36:24.829Z,49.88
2022-09-07T17:39:19.297Z,49.86
2022-09-07T17:41:34.107Z,50.14
2022-09-07T17:44:00.045Z,50.83
2022-09-07T17:46:25.934Z,50.60
2022-09-07T17:48:52.136Z,50.72
2022-09-07T17:51:18.297Z,50.48
2022-09-07T17:53:45.298Z,51.00
2022-09-07T17:56:13.528Z,51.23
2022-09-07T17:58:40.178Z,51.62
2022-09-07T18:01:05.612Z,51.38
2022-09-07T18:03:34.751Z,51.00
2022-09-07T18:06:00.363Z,51.04
2022-09-07T18:08:24.909Z,51.47
2022-09-07T18:13:36.311Z,51.50
2022-09-07T18:16:02.941Z,52.05
2022-09-07T18:18:27.478Z,52.05
2022-09-07T18:20:51.426Z,51.77
2022-09-07T18:23:15.449Z,51.72
2022-09-07T18:25:39.895Z,51.67
2022-09-07T18:30:49.433Z,52.29
2022-09-07T18:33:14.871Z,52.45
2022-09-07T18:35:39.037Z,52.51
2022-09-07T18:38:03.122Z,53.30
2022-09-07T18:40:27.189Z,53.34
2022-09-07T18:42:52.589Z,53.29
2022-09-07T18:45:31.987Z,53.62
2022-09-07T18:47:56.719Z,54.17
2022-09-07T18:50:23.333Z,54.75
2022-09-07T18:52:57.422Z,54.58
2022-09-07T18:55:28.720Z,54.86
2022-09-07T18:57:52.789Z,55.28
2022-09-07T19:00:17.929Z,55.16
2022-09-07T19:02:42.495Z,55.49
2022-09-07T19:07:52.972Z,56.60
2022-09-07T19:10:17.897Z,56.54
2022-09-07T19:12:45.647Z,56.80
2022-09-07T19:15:11.677Z,56.67
2022-09-07T19:17:35.955Z,56.81
2022-09-07T19:20:01.187Z,57.27
2022-09-07T19:22:27.955Z,56.89
2022-09-07T19:24:55.920Z,57.31
2022-09-07T19:27:21.660Z,57.73
2022-09-07T19:29:47.697Z,57.37
2022-09-07T19:32:13.140Z,57.18
2022-09-07T19:34:39.174Z,57.71
2022-09-07T19:37:03.549Z,57.92
2022-09-07T19:39:27.616Z,57.80
2022-09-07T19:41:53.050Z,57.97
2022-09-07T19:44:17.193Z,58.19
2022-09-07T19:46:42.828Z,58.38
2022-09-07T19:49:12.057Z,58.67
2022-09-07T19:51:36.894Z,58.78
2022-09-07T19:54:00.911Z,58.61
2022-09-07T19:56:24.848Z,59.52
2022-09-07T19:58:51.032Z,59.68
2022-09-07T20:01:17.775Z,60.04
2022-09-07T20:03:43.101Z,60.20
2022-09-07T20:06:08.305Z,59.90
2022-09-07T20:08:32.252Z,59.64
2022-09-07T20:11:02.044Z,59.55
2022-09-07T20:13:26.117Z,60.18
2022-09-07T20:15:51.557Z,60.30
2022-09-07T20:18:15.480Z,60.13
2022-09-07T20:20:39.675Z,59.76
2022-09-07T20:23:03.649Z,60.26
2022-09-07T20:25:27.603Z,60.19
2022-09-07T20:27:51.688Z,60.32
2022-09-07T20:30:17.931Z,61.45
2022-09-07T20:32:44.947Z,61.03
2022-09-07T20:35:09.872Z,61.12
2022-09-07T20:37:34.246Z,61.01
2022-09-07T20:39:58.084Z,61.61
2022-09-07T20:42:22.271Z,61.68
2022-09-07T20:44:47.104Z,61.70
2022-09-07T20:47:11.416Z,61.85
2022-09-07T20:49:37.656Z,62.07
2022-09-07T20:52:02.359Z,62.81
2022-09-07T20:54:26.562Z,62.65
2022-09-07T20:56:50.868Z,62.45
2022-09-07T20:59:15.812Z,62.71
2022-09-07T21:01:40.423Z,62.79
2022-09-07T21:04:06.415Z,62.43
2022-09-07T21:06:33.416Z,62.97
2022-09-07T21:08:58.273Z,62.84
2022-09-07T21:11:24.801Z,63.20
2022-09-07T21:13:49.508Z,63.41
2022-09-07T21:16:15.950Z,63.23
2022-09-07T21:18:40.987Z,63.44
2022-09-07T21:21:21.439Z,64.13
2022-09-07T21:23:48.124Z,64.55
2022-09-07T21:26:12.677Z,64.11
2022-09-07T21:28:37.631Z,63.76
2022-09-07T21:31:05.057Z,63.61
2022-09-07T21:33:31.251Z,63.31
2022-09-07T21:35:55.618Z,63.71
2022-09-07T21:38:19.931Z,63.42
2022-09-07T21:40:45.403Z,63.74
2022-09-07T21:43:09.386Z,64.12
2022-09-07T21:45:33.475Z,64.05
2022-09-07T21:47:57.352Z,63.57
2022-09-07T21:50:21.245Z,63.74
2022-09-07T21:52:45.397Z,63.71
2022-09-07T21:55:09.912Z,63.86
2022-09-07T21:57:35.586Z,63.39
2022-09-07T21:59:59.602Z,63.08
2022-09-07T22:02:23.739Z,63.20
2022-09-07T22:04:47.688Z,62.98
2022-09-07T22:07:11.928Z,62.43
2022-09-07T22:09:35.909Z,62.14
2022-09-07T22:12:00.206Z,62.39
2022-09-07T22:14:25.540Z,62.60
2022-09-07T22:16:49.643Z,62.65
2022-09-07T22:19:14.053Z,62.67
2022-09-07T22:21:38.586Z,62.45
2022-09-07T22:24:04.899Z,63.09
2022-09-07T22:26:30.353Z,63.64
2022-09-07T22:28:54.708Z,63.99
2022-09-07T22:31:22.081Z,63.56
2022-09-07T22:33:47.196Z,63.71
2022-09-07T22:36:13.439Z,63.84
2022-09-07T22:38:37.892Z,63.61
2022-09-07T22:41:08.118Z,63.84
2022-09-07T22:43:32.535Z,64.08
2022-09-07T22:45:56.653Z,64.37
2022-09-07T22:48:21.927Z,64.22
2022-09-07T22:50:46.329Z,64.24
2022-09-07T22:53:10.161Z,64.34
2022-09-07T22:55:34.007Z,64.72
2022-09-07T22:57:59.071Z,64.63
2022-09-07T23:00:23.249Z,65.47
2022-09-07T23:02:47.470Z,66.13
2022-09-07T23:05:13.028Z,65.37
2022-09-07T23:07:36.917Z,65.37
2022-09-07T23:10:00.981Z,65.19
2022-09-07T23:12:25.096Z,65.21
2022-09-07T23:14:49.124Z,64.96
2022-09-07T23:17:13.060Z,65.53
2022-09-07T23:19:37.244Z,65.26
2022-09-07T23:22:03.162Z,65.55
2022-09-07T23:24:27.268Z,65.21
2022-09-07T23:26:51.615Z,65.16
2022-09-07T23:29:16.574Z,65.71
2022-09-07T23:31:41.053Z,65.65
2022-09-07T23:34:05.432Z,65.46
2022-09-07T23:36:29.475Z,65.45
2022-09-07T23:38:57.042Z,65.29
2022-09-07T23:41:22.155Z,65.59
2022-09-07T23:43:46.340Z,66.31
2022-09-07T23:46:11.642Z,67.01
2022-09-07T23:48:35.696Z,65.98
2022-09-07T23:50:59.595Z,65.84
2022-09-07T23:53:23.951Z,66.44
2022-09-07T23:55:51.595Z,65.99
2022-09-07T23:58:15.800Z,66.56
